Time;durP1;ratioP1;P1;durP2;ratioP2;P2;SDS_P1;SDS_P2;PMS_P1;PMS_P2;Temp;Humidity;BMP_temperature;BMP_pressure;BME280_temperature;BME280_humidity;BME280_pressure;Samples;Min_cycle;Max_cycle;Signal;HPM_P1;HPM_P2
2023/02/25 00:00:09;;;;;;;3.0;2.9;;;;;;;3.4;100.0;100570;;;;
2023/02/25 00:01:03;;;;;;;3.0;2.9;;;;;;;3.4;100.0;100570;;;;
2023/02/25 00:02:04;;;;;;;3.0;2.9;;;;;;;3.4;100.0;100570;;;;
2023/02/25 00:03:00;;;;;;;3.0;2.9;;;;;;;3.4;100.0;100570;;;;
2023/02/25 00:04:00;;;;;;;3.0;2.9;;;;;;;3.4;100.0;100570;;;;
2023/02/25 00:05:05;;;;;;;3.0;2.9;;;;;;;3.4;100.0;100570;;;;
2023/02/25 00:06:01;;;;;;;3.0;2.9;;;;;;;3.4;100.0;100570;;;;
2023/02/25 00:07:00;;;;;;;3.0;2.9;;;;;;;3.3;100.0;100570;;;;
2023/02/25 00:08:00;;;;;;;3.0;2.9;;;;;;;3.3;100.0;100570;;;;
2023/02/25 00:09:00;;;;;;;3.0;2.9;;;;;;;3.3;100.0;100570;;;;
2023/02/25 00:10:00;;;;;;;3.0;2.9;;;;;;;3.3;100.0;100570;;;;
2023/02/25 00:11:02;;;;;;;3.0;2.9;;;;;;;3.4;100.0;100560;;;;
2023/02/25 00:12:00;;;;;;;3.0;2.9;;;;;;;3.4;100.0;100560;;;;
2023/02/25 00:13:12;;;;;;;3.0;2.9;;;;;;;3.3;100.0;100560;;;;
2023/02/25 00:14:01;;;;;;;3.0;2.9;;;;;;;3.3;100.0;100560;;;;
2023/02/25 00:15:00;;;;;;;3.0;2.9;;;;;;;3.3;100.0;100570;;;;
2023/02/25 00:16:03;;;;;;;3.0;2.9;;;;;;;3.3;100.0;100570;;;;
2023/02/25 00:17:00;;;;;;;3.0;2.9;;;;;;;3.3;100.0;100560;;;;
2023/02/25 00:18:00;;;;;;;2.3;2.3;;;;;;;3.3;100.0;100560;;;;
2023/02/25 00:19:02;;;;;;;2.3;2.3;;;;;;;3.4;100.0;100560;;;;
2023/02/25 00:20:01;;;;;;;2.3;2.3;;;;;;;3.4;100.0;100560;;;;
2023/02/25 00:21:03;;;;;;;2.3;2.3;;;;;;;3.3;100.0;100560;;;;
2023/02/25 00:22:00;;;;;;;2.3;2.3;;;;;;;3.3;100.0;100560;;;;
2023/02/25 00:23:00;;;;;;;2.3;2.3;;;;;;;3.3;100.0;100560;;;;
2023/02/25 00:24:11;;;;;;;2.3;2.3;;;;;;;3.3;100.0;100560;;;;
2023/02/25 00:25:00;;;;;;;2.3;2.3;;;;;;;3.3;100.0;100560;;;;
2023/02/25 00:26:02;;;;;;;2.3;2.3;;;;;;;3.3;100.0;100560;;;;
2023/02/25 00:27:00;;;;;;;2.3;2.3;;;;;;;3.3;100.0;100560;;;;
2023/02/25 00:28:04;;;;;;;2.3;2.3;;;;;;;3.3;100.0;100560;;;;
2023/02/25 00:29:00;;;;;;;2.3;2.3;;;;;;;3.3;100.0;100560;;;;
2023/02/25 00:30:00;;;;;;;2.3;2.3;;;;;;;3.3;100.0;100560;;;;
2023/02/25 00:31:05;;;;;;;2.3;2.3;;;;;;;3.4;100.0;100560;;;;
2023/02/25 00:32:00;;;;;;;2.3;2.3;;;;;;;3.4;100.0;100560;;;;
2023/02/25 00:33:00;;;;;;;2.3;2.3;;;;;;;3.3;100.0;100560;;;;
2023/02/25 00:34:00;;;;;;;2.3;2.3;;;;;;;3.3;100.0;100560;;;;
2023/02/25 00:35:00;;;;;;;2.3;2.3;;;;;;;3.3;100.0;100560;;;;
2023/02/25 00:36:04;;;;;;;2.3;2.3;;;;;;;3.3;100.0;100560;;;;
2023/02/25 00:37:00;;;;;;;2.3;2.3;;;;;;;3.2;100.0;100560;;;;
2023/02/25 00:38:10;;;;;;;2.4;2.4;;;;;;;3.2;100.0;100560;;;;
2023/02/25 00:39:00;;;;;;;2.4;2.4;;;;;;;3.3;100.0;100560;;;;
2023/02/25 00:40:00;;;;;;;2.4;2.4;;;;;;;3.3;100.0;100560;;;;
2023/02/25 00:41:07;;;;;;;2.4;2.4;;;;;;;3.3;100.0;100560;;;;
2023/02/25 00:42:00;;;;;;;2.4;2.4;;;;;;;3.3;100.0;100560;;;;
2023/02/25 00:43:00;;;;;;;2.4;2.4;;;;;;;3.3;100.0;100560;;;;
2023/02/25 00:44:01;;;;;;;2.4;2.4;;;;;;;3.3;100.0;100560;;;;
2023/02/25 00:45:00;;;;;;;2.4;2.4;;;;;;;3.3;100.0;100570;;;;
2023/02/25 00:46:00;;;;;;;2.4;2.4;;;;;;;3.3;100.0;100570;;;;
2023/02/25 00:47:00;;;;;;;2.4;2.4;;;;;;;3.3;100.0;100570;;;;
2023/02/25 00:48:00;;;;;;;2.4;2.4;;;;;;;3.3;100.0;100570;;;;
2023/02/25 00:49:00;;;;;;;2.4;2.4;;;;;;;3.3;100.0;100560;;;;
2023/02/25 00:50:00;;;;;;;2.4;2.4;;;;;;;3.3;100.0;100560;;;;
2023/02/25 00:51:08;;;;;;;2.4;2.4;;;;;;;3.1;100.0;100560;;;;
2023/02/25 00:52:00;;;;;;;2.4;2.4;;;;;;;3.1;100.0;100560;;;;
2023/02/25 00:53:00;;;;;;;2.4;2.4;;;;;;;3.2;100.0;100560;;;;
2023/02/25 00:54:00;;;;;;;2.4;2.4;;;;;;;3.2;100.0;100560;;;;
2023/02/25 00:55:01;;;;;;;2.4;2.4;;;;;;;3.1;100.0;100560;;;;
2023/02/25 00:56:01;;;;;;;2.4;2.4;;;;;;;3.1;100.0;100560;;;;
2023/02/25 00:57:00;;;;;;;2.4;2.4;;;;;;;3.0;100.0;100560;;;;
2023/02/25 00:58:00;;;;;;;2.3;2.3;;;;;;;3.0;100.0;100560;;;;
2023/02/25 00:59:00;;;;;;;2.3;2.3;;;;;;;3.1;100.0;100570;;;;
2023/02/25 01:00:00;;;;;;;2.3;2.3;;;;;;;3.1;100.0;100570;;;;
2023/02/25 01:01:00;;;;;;;2.3;2.3;;;;;;;3.1;100.0;100570;;;;
2023/02/25 01:02:00;;;;;;;2.3;2.3;;;;;;;3.1;100.0;100570;;;;
2023/02/25 01:03:00;;;;;;;2.3;2.3;;;;;;;3.1;100.0;100570;;;;
2023/02/25 01:04:00;;;;;;;2.3;2.3;;;;;;;3.1;100.0;100570;;;;
2023/02/25 01:05:00;;;;;;;2.3;2.3;;;;;;;3.1;100.0;100570;;;;
2023/02/25 01:06:01;;;;;;;2.3;2.3;;;;;;;3.1;100.0;100570;;;;
2023/02/25 01:07:03;;;;;;;2.3;2.3;;;;;;;3.2;100.0;100570;;;;
2023/02/25 01:08:00;;;;;;;2.3;2.3;;;;;;;3.2;100.0;100570;;;;
2023/02/25 01:09:01;;;;;;;2.3;2.3;;;;;;;3.1;100.0;100570;;;;
2023/02/25 01:10:00;;;;;;;2.3;2.3;;;;;;;3.1;100.0;100570;;;;
2023/02/25 01:11:08;;;;;;;2.3;2.3;;;;;;;3.2;100.0;100570;;;;
2023/02/25 01:12:00;;;;;;;2.3;2.3;;;;;;;3.2;100.0;100570;;;;
2023/02/25 01:13:00;;;;;;;2.3;2.3;;;;;;;3.2;100.0;100570;;;;
2023/02/25 01:14:03;;;;;;;2.3;2.3;;;;;;;3.2;100.0;100570;;;;
2023/02/25 01:15:00;;;;;;;2.3;2.3;;;;;;;3.2;100.0;100570;;;;
2023/02/25 01:16:01;;;;;;;2.3;2.3;;;;;;;3.2;100.0;100570;;;;
2023/02/25 01:17:01;;;;;;;2.3;2.3;;;;;;;3.2;100.0;100570;;;;
2023/02/25 01:18:00;;;;;;;2.2;2.2;;;;;;;3.2;100.0;100570;;;;
2023/02/25 01:19:02;;;;;;;2.2;2.2;;;;;;;3.2;100.0;100570;;;;
2023/02/25 01:20:00;;;;;;;2.2;2.2;;;;;;;3.2;100.0;100570;;;;
2023/02/25 01:21:00;;;;;;;2.2;2.2;;;;;;;3.3;100.0;100570;;;;
2023/02/25 01:22:00;;;;;;;2.2;2.2;;;;;;;3.3;100.0;100570;;;;
2023/02/25 01:23:01;;;;;;;2.2;2.2;;;;;;;3.3;100.0;100570;;;;
2023/02/25 01:24:02;;;;;;;2.2;2.2;;;;;;;3.3;100.0;100570;;;;
2023/02/25 01:25:00;;;;;;;2.2;2.2;;;;;;;3.3;100.0;100570;;;;
2023/02/25 01:26:02;;;;;;;2.2;2.2;;;;;;;3.3;100.0;100570;;;;
2023/02/25 01:27:01;;;;;;;2.2;2.2;;;;;;;3.4;100.0;100570;;;;
2023/02/25 01:28:00;;;;;;;2.2;2.2;;;;;;;3.4;100.0;100570;;;;
2023/02/25 01:29:00;;;;;;;2.2;2.2;;;;;;;3.4;100.0;100570;;;;
2023/02/25 01:30:00;;;;;;;2.2;2.2;;;;;;;3.4;100.0;100570;;;;
2023/02/25 01:31:00;;;;;;;2.2;2.2;;;;;;;3.3;100.0;100580;;;;
2023/02/25 01:32:01;;;;;;;2.2;2.2;;;;;;;3.3;100.0;100580;;;;
2023/02/25 01:33:00;;;;;;;2.2;2.2;;;;;;;3.3;100.0;100580;;;;
2023/02/25 01:34:01;;;;;;;2.2;2.2;;;;;;;3.3;100.0;100580;;;;
2023/02/25 01:35:01;;;;;;;2.2;2.2;;;;;;;3.4;100.0;100580;;;;
2023/02/25 01:36:00;;;;;;;2.2;2.2;;;;;;;3.4;100.0;100580;;;;
2023/02/25 01:37:01;;;;;;;2.2;2.2;;;;;;;3.4;100.0;100580;;;;
2023/02/25 01:38:00;;;;;;;2.1;2.1;;;;;;;3.4;100.0;100580;;;;
2023/02/25 01:39:01;;;;;;;2.1;2.1;;;;;;;3.3;100.0;100580;;;;
2023/02/25 01:40:00;;;;;;;2.1;2.1;;;;;;;3.3;100.0;100580;;;;
2023/02/25 01:41:01;;;;;;;2.1;2.1;;;;;;;3.4;100.0;100580;;;;
2023/02/25 01:42:02;;;;;;;2.1;2.1;;;;;;;3.4;100.0;100580;;;;
2023/02/25 01:43:00;;;;;;;2.1;2.1;;;;;;;3.3;100.0;100580;;;;
2023/02/25 01:44:05;;;;;;;2.1;2.1;;;;;;;3.3;100.0;100580;;;;
2023/02/25 01:45:10;;;;;;;2.1;2.1;;;;;;;3.4;100.0;100580;;;;
2023/02/25 01:46:00;;;;;;;2.1;2.1;;;;;;;3.4;100.0;100580;;;;
2023/02/25 01:47:00;;;;;;;2.1;2.1;;;;;;;3.3;100.0;100580;;;;
2023/02/25 01:48:04;;;;;;;2.1;2.1;;;;;;;3.3;100.0;100580;;;;
2023/02/25 01:49:01;;;;;;;2.1;2.1;;;;;;;3.3;100.0;100580;;;;
2023/02/25 01:50:01;;;;;;;2.1;2.1;;;;;;;3.3;100.0;100580;;;;
2023/02/25 01:51:02;;;;;;;2.1;2.1;;;;;;;3.3;100.0;100580;;;;
2023/02/25 01:52:02;;;;;;;2.1;2.1;;;;;;;3.3;100.0;100580;;;;
2023/02/25 01:53:01;;;;;;;2.1;2.1;;;;;;;3.3;100.0;100580;;;;
2023/02/25 01:54:02;;;;;;;2.1;2.1;;;;;;;3.3;100.0;100580;;;;
2023/02/25 01:55:02;;;;;;;2.1;2.1;;;;;;;3.4;100.0;100570;;;;
2023/02/25 01:56:01;;;;;;;2.1;2.1;;;;;;;3.4;100.0;100570;;;;
2023/02/25 01:57:02;;;;;;;2.1;2.1;;;;;;;3.3;100.0;100570;;;;
2023/02/25 01:58:00;;;;;;;2.1;2.1;;;;;;;3.3;100.0;100570;;;;
2023/02/25 01:59:01;;;;;;;2.1;2.1;;;;;;;3.3;100.0;100570;;;;
2023/02/25 02:00:01;;;;;;;2.1;2.1;;;;;;;3.3;100.0;100570;;;;
2023/02/25 02:01:00;;;;;;;2.1;2.1;;;;;;;3.3;100.0;100570;;;;
2023/02/25 02:02:00;;;;;;;2.1;2.1;;;;;;;3.3;100.0;100570;;;;
2023/02/25 02:03:01;;;;;;;2.1;2.1;;;;;;;3.3;100.0;100570;;;;
2023/02/25 02:04:03;;;;;;;2.1;2.1;;;;;;;3.3;100.0;100570;;;;
2023/02/25 02:05:00;;;;;;;2.1;2.1;;;;;;;3.3;100.0;100570;;;;
2023/02/25 02:06:11;;;;;;;2.1;2.1;;;;;;;3.3;100.0;100570;;;;
2023/02/25 02:07:00;;;;;;;2.1;2.1;;;;;;;3.3;100.0;100570;;;;
2023/02/25 02:08:01;;;;;;;2.1;2.1;;;;;;;3.3;100.0;100570;;;;
2023/02/25 02:09:01;;;;;;;2.1;2.1;;;;;;;3.3;100.0;100570;;;;
2023/02/25 02:10:01;;;;;;;2.1;2.1;;;;;;;3.3;100.0;100570;;;;
2023/02/25 02:11:01;;;;;;;2.1;2.1;;;;;;;3.4;100.0;100570;;;;
2023/02/25 02:12:01;;;;;;;2.1;2.1;;;;;;;3.4;100.0;100570;;;;
2023/02/25 02:13:00;;;;;;;2.1;2.1;;;;;;;3.3;100.0;100570;;;;
2023/02/25 02:14:02;;;;;;;2.1;2.1;;;;;;;3.3;100.0;100570;;;;
2023/02/25 02:15:03;;;;;;;2.1;2.1;;;;;;;3.3;100.0;100570;;;;
2023/02/25 02:16:00;;;;;;;2.1;2.1;;;;;;;3.3;100.0;100570;;;;
2023/02/25 02:17:10;;;;;;;2.1;2.1;;;;;;;3.4;100.0;100570;;;;
2023/02/25 02:18:01;;;;;;;2.0;2.0;;;;;;;3.4;100.0;100570;;;;
2023/02/25 02:19:09;;;;;;;2.0;2.0;;;;;;;3.4;100.0;100570;;;;
2023/02/25 02:21:08;;;;;;;2.0;2.0;;;;;;;3.4;100.0;100570;;;;
2023/02/25 02:22:07;;;;;;;2.0;2.0;;;;;;;3.4;100.0;100570;;;;
2023/02/25 02:23:09;;;;;;;2.0;2.0;;;;;;;3.4;100.0;100570;;;;
2023/02/25 02:24:10;;;;;;;2.0;2.0;;;;;;;3.4;100.0;100570;;;;
2023/02/25 02:25:10;;;;;;;2.0;2.0;;;;;;;3.4;100.0;100570;;;;
2023/02/25 02:26:10;;;;;;;2.0;2.0;;;;;;;3.4;100.0;100570;;;;
2023/02/25 02:27:02;;;;;;;2.0;2.0;;;;;;;3.5;100.0;100570;;;;
2023/02/25 02:28:01;;;;;;;2.0;2.0;;;;;;;3.5;100.0;100570;;;;
2023/02/25 02:29:10;;;;;;;2.0;2.0;;;;;;;3.6;100.0;100580;;;;
2023/02/25 02:30:03;;;;;;;2.0;2.0;;;;;;;3.6;100.0;100580;;;;
2023/02/25 02:31:11;;;;;;;2.0;2.0;;;;;;;3.4;100.0;100580;;;;
2023/02/25 02:32:06;;;;;;;2.0;2.0;;;;;;;3.4;100.0;100580;;;;
2023/02/25 02:33:03;;;;;;;2.0;2.0;;;;;;;3.5;100.0;100590;;;;
2023/02/25 02:34:10;;;;;;;2.0;2.0;;;;;;;3.5;100.0;100590;;;;
2023/02/25 02:35:08;;;;;;;2.0;2.0;;;;;;;3.5;100.0;100590;;;;
2023/02/25 02:36:03;;;;;;;2.0;2.0;;;;;;;3.5;100.0;100590;;;;
2023/02/25 02:37:08;;;;;;;2.0;2.0;;;;;;;3.5;100.0;100590;;;;
2023/02/25 02:38:00;;;;;;;2.2;2.2;;;;;;;3.5;100.0;100590;;;;
2023/02/25 02:39:10;;;;;;;2.2;2.2;;;;;;;3.5;100.0;100590;;;;
2023/02/25 02:40:13;;;;;;;2.2;2.2;;;;;;;3.5;100.0;100590;;;;
2023/02/25 02:41:11;;;;;;;2.2;2.2;;;;;;;3.5;100.0;100580;;;;
2023/02/25 02:42:03;;;;;;;2.2;2.2;;;;;;;3.5;100.0;100580;;;;
2023/02/25 02:43:05;;;;;;;2.2;2.2;;;;;;;3.5;100.0;100590;;;;
2023/02/25 02:44:05;;;;;;;2.2;2.2;;;;;;;3.5;100.0;100590;;;;
2023/02/25 02:45:06;;;;;;;2.2;2.2;;;;;;;3.5;100.0;100580;;;;
2023/02/25 02:46:04;;;;;;;2.2;2.2;;;;;;;3.5;100.0;100580;;;;
2023/02/25 02:47:08;;;;;;;2.2;2.2;;;;;;;3.5;100.0;100580;;;;
2023/02/25 02:48:04;;;;;;;2.2;2.2;;;;;;;3.5;100.0;100580;;;;
2023/02/25 02:49:03;;;;;;;2.2;2.2;;;;;;;3.5;100.0;100580;;;;
2023/02/25 02:50:03;;;;;;;2.2;2.2;;;;;;;3.5;100.0;100580;;;;
2023/02/25 02:51:02;;;;;;;2.2;2.2;;;;;;;3.5;100.0;100580;;;;
2023/02/25 02:52:02;;;;;;;2.2;2.2;;;;;;;3.5;100.0;100580;;;;
2023/02/25 02:53:07;;;;;;;2.2;2.2;;;;;;;3.5;100.0;100590;;;;
2023/02/25 02:54:03;;;;;;;2.2;2.2;;;;;;;3.5;100.0;100590;;;;
2023/02/25 02:55:05;;;;;;;2.2;2.2;;;;;;;3.5;100.0;100590;;;;
2023/02/25 02:56:03;;;;;;;2.2;2.2;;;;;;;3.5;100.0;100590;;;;
2023/02/25 02:57:02;;;;;;;2.2;2.2;;;;;;;3.4;100.0;100590;;;;
2023/02/25 02:58:05;;;;;;;2.1;2.1;;;;;;;3.4;100.0;100590;;;;
2023/02/25 02:59:04;;;;;;;2.1;2.1;;;;;;;3.5;100.0;100590;;;;
2023/02/25 03:00:12;;;;;;;2.1;2.1;;;;;;;3.5;100.0;100590;;;;
2023/02/25 03:01:03;;;;;;;2.1;2.1;;;;;;;3.5;100.0;100590;;;;
2023/02/25 03:02:07;;;;;;;2.1;2.1;;;;;;;3.5;100.0;100590;;;;
2023/02/25 03:03:07;;;;;;;2.1;2.1;;;;;;;3.5;100.0;100590;;;;
2023/02/25 03:04:04;;;;;;;2.1;2.1;;;;;;;3.5;100.0;100590;;;;
2023/02/25 03:05:03;;;;;;;2.1;2.1;;;;;;;3.4;100.0;100590;;;;
2023/02/25 03:06:01;;;;;;;2.1;2.1;;;;;;;3.4;100.0;100590;;;;
2023/02/25 03:07:02;;;;;;;2.1;2.1;;;;;;;3.4;100.0;100590;;;;
2023/02/25 03:08:04;;;;;;;2.1;2.1;;;;;;;3.4;100.0;100590;;;;
2023/02/25 03:09:03;;;;;;;2.1;2.1;;;;;;;3.4;100.0;100600;;;;
2023/02/25 03:10:02;;;;;;;2.1;2.1;;;;;;;3.4;100.0;100600;;;;
2023/02/25 03:11:00;;;;;;;2.1;2.1;;;;;;;3.4;100.0;100590;;;;
2023/02/25 03:12:00;;;;;;;2.1;2.1;;;;;;;3.4;100.0;100590;;;;
2023/02/25 03:13:00;;;;;;;2.1;2.1;;;;;;;3.4;100.0;100590;;;;
2023/02/25 03:14:00;;;;;;;2.1;2.1;;;;;;;3.4;100.0;100590;;;;
2023/02/25 03:15:00;;;;;;;2.1;2.1;;;;;;;3.4;100.0;100590;;;;
2023/02/25 03:16:04;;;;;;;2.1;2.1;;;;;;;3.4;100.0;100590;;;;
2023/02/25 03:17:04;;;;;;;2.1;2.1;;;;;;;3.4;100.0;100590;;;;
2023/02/25 03:18:04;;;;;;;2.1;2.1;;;;;;;3.4;100.0;100590;;;;
2023/02/25 03:19:04;;;;;;;2.1;2.1;;;;;;;3.3;100.0;100590;;;;
2023/02/25 03:20:08;;;;;;;2.1;2.1;;;;;;;3.3;100.0;100590;;;;
2023/02/25 03:21:02;;;;;;;2.1;2.1;;;;;;;3.3;100.0;100590;;;;
2023/02/25 03:22:03;;;;;;;2.1;2.1;;;;;;;3.3;100.0;100590;;;;
2023/02/25 03:23:03;;;;;;;2.1;2.1;;;;;;;3.3;100.0;100590;;;;
2023/02/25 03:24:02;;;;;;;2.1;2.1;;;;;;;3.3;100.0;100590;;;;
2023/02/25 03:25:13;;;;;;;2.1;2.1;;;;;;;3.3;100.0;100590;;;;
2023/02/25 03:26:10;;;;;;;2.1;2.1;;;;;;;3.3;100.0;100590;;;;
2023/02/25 03:27:10;;;;;;;2.1;2.1;;;;;;;3.3;100.0;100590;;;;
2023/02/25 03:28:03;;;;;;;2.1;2.1;;;;;;;3.3;100.0;100590;;;;
2023/02/25 03:29:00;;;;;;;2.1;2.1;;;;;;;3.3;100.0;100590;;;;
2023/02/25 03:30:05;;;;;;;2.1;2.1;;;;;;;3.3;100.0;100590;;;;
2023/02/25 03:31:10;;;;;;;2.1;2.1;;;;;;;3.4;100.0;100590;;;;
2023/02/25 03:32:05;;;;;;;2.1;2.1;;;;;;;3.4;100.0;100590;;;;
2023/02/25 03:33:05;;;;;;;2.1;2.1;;;;;;;3.4;100.0;100590;;;;
2023/02/25 03:34:00;;;;;;;2.1;2.1;;;;;;;3.4;100.0;100590;;;;
2023/02/25 03:35:03;;;;;;;2.1;2.1;;;;;;;3.3;100.0;100590;;;;
2023/02/25 03:36:02;;;;;;;2.1;2.1;;;;;;;3.3;100.0;100590;;;;
2023/02/25 03:37:02;;;;;;;2.1;2.0;;;;;;;3.4;100.0;100590;;;;
2023/02/25 03:38:03;;;;;;;2.0;2.0;;;;;;;3.4;100.0;100590;;;;
2023/02/25 03:39:05;;;;;;;2.0;2.0;;;;;;;3.4;100.0;100600;;;;
2023/02/25 03:40:10;;;;;;;2.0;2.0;;;;;;;3.4;100.0;100600;;;;
2023/02/25 03:41:02;;;;;;;2.0;2.0;;;;;;;3.3;100.0;100600;;;;
2023/02/25 03:42:03;;;;;;;2.0;2.0;;;;;;;3.3;100.0;100600;;;;
2023/02/25 03:43:05;;;;;;;2.0;2.0;;;;;;;3.2;100.0;100590;;;;
2023/02/25 03:44:01;;;;;;;2.0;2.0;;;;;;;3.2;100.0;100590;;;;
2023/02/25 03:45:02;;;;;;;2.0;2.0;;;;;;;3.2;100.0;100600;;;;
2023/02/25 03:46:02;;;;;;;2.0;2.0;;;;;;;3.2;100.0;100600;;;;
2023/02/25 03:47:02;;;;;;;2.0;2.0;;;;;;;3.1;100.0;100600;;;;
2023/02/25 03:48:01;;;;;;;2.0;2.0;;;;;;;3.1;100.0;100600;;;;
2023/02/25 03:49:02;;;;;;;2.0;2.0;;;;;;;3.1;100.0;100600;;;;
2023/02/25 03:50:05;;;;;;;2.0;2.0;;;;;;;3.1;100.0;100600;;;;
2023/02/25 03:51:02;;;;;;;2.0;2.0;;;;;;;3.1;100.0;100590;;;;
2023/02/25 03:52:03;;;;;;;2.0;2.0;;;;;;;3.1;100.0;100590;;;;
2023/02/25 03:53:00;;;;;;;2.0;2.0;;;;;;;3.1;100.0;100600;;;;
2023/02/25 03:54:01;;;;;;;2.0;2.0;;;;;;;3.1;100.0;100600;;;;
2023/02/25 03:55:01;;;;;;;2.0;2.0;;;;;;;3.2;100.0;100600;;;;
2023/02/25 03:56:04;;;;;;;2.0;2.0;;;;;;;3.2;100.0;100600;;;;
2023/02/25 03:57:00;;;;;;;2.2;2.2;;;;;;;3.1;100.0;100600;;;;
2023/02/25 03:58:00;;;;;;;2.2;2.2;;;;;;;3.1;100.0;100600;;;;
2023/02/25 03:59:00;;;;;;;2.2;2.2;;;;;;;3.2;100.0;100610;;;;
2023/02/25 04:00:01;;;;;;;2.2;2.2;;;;;;;3.2;100.0;100610;;;;
2023/02/25 04:01:02;;;;;;;2.2;2.2;;;;;;;3.2;100.0;100610;;;;
2023/02/25 04:02:01;;;;;;;2.2;2.2;;;;;;;3.2;100.0;100610;;;;
2023/02/25 04:03:00;;;;;;;2.2;2.2;;;;;;;3.1;100.0;100600;;;;
2023/02/25 04:04:00;;;;;;;2.2;2.2;;;;;;;3.1;100.0;100600;;;;
2023/02/25 04:05:00;;;;;;;2.2;2.2;;;;;;;3.1;100.0;100610;;;;
2023/02/25 04:06:00;;;;;;;2.2;2.2;;;;;;;3.1;100.0;100610;;;;
2023/02/25 04:07:00;;;;;;;2.2;2.2;;;;;;;3.2;100.0;100600;;;;
2023/02/25 04:08:00;;;;;;;2.2;2.2;;;;;;;3.2;100.0;100600;;;;
2023/02/25 04:09:00;;;;;;;2.2;2.2;;;;;;;3.1;100.0;100610;;;;
2023/02/25 04:10:00;;;;;;;2.2;2.2;;;;;;;3.1;100.0;100610;;;;
2023/02/25 04:11:00;;;;;;;2.2;2.2;;;;;;;3.1;100.0;100610;;;;
2023/02/25 04:12:00;;;;;;;2.2;2.2;;;;;;;3.1;100.0;100610;;;;
2023/02/25 04:13:00;;;;;;;2.2;2.2;;;;;;;3.1;100.0;100610;;;;
2023/02/25 04:14:00;;;;;;;2.2;2.2;;;;;;;3.1;100.0;100610;;;;
2023/02/25 04:15:00;;;;;;;2.2;2.2;;;;;;;3.1;100.0;100610;;;;
2023/02/25 04:16:00;;;;;;;2.2;2.2;;;;;;;3.1;100.0;100610;;;;
2023/02/25 04:17:03;;;;;;;2.3;2.3;;;;;;;3.1;100.0;100620;;;;
2023/02/25 04:18:00;;;;;;;2.3;2.3;;;;;;;3.1;100.0;100620;;;;
2023/02/25 04:19:00;;;;;;;2.3;2.3;;;;;;;3.1;100.0;100620;;;;
2023/02/25 04:20:00;;;;;;;2.3;2.3;;;;;;;3.1;100.0;100620;;;;
2023/02/25 04:21:00;;;;;;;2.3;2.3;;;;;;;3.1;100.0;100620;;;;
2023/02/25 04:22:00;;;;;;;2.3;2.3;;;;;;;3.1;100.0;100620;;;;
2023/02/25 04:23:00;;;;;;;2.3;2.3;;;;;;;3.1;100.0;100620;;;;
2023/02/25 04:24:01;;;;;;;2.3;2.3;;;;;;;3.1;100.0;100620;;;;
2023/02/25 04:25:00;;;;;;;2.3;2.3;;;;;;;3.2;100.0;100620;;;;
2023/02/25 04:26:00;;;;;;;2.3;2.3;;;;;;;3.2;100.0;100620;;;;
2023/02/25 04:27:01;;;;;;;2.3;2.3;;;;;;;3.2;100.0;100620;;;;
2023/02/25 04:28:00;;;;;;;2.3;2.3;;;;;;;3.2;100.0;100620;;;;
2023/02/25 04:29:00;;;;;;;2.3;2.3;;;;;;;3.2;100.0;100610;;;;
2023/02/25 04:30:00;;;;;;;2.3;2.3;;;;;;;3.2;100.0;100610;;;;
2023/02/25 04:31:00;;;;;;;2.3;2.3;;;;;;;3.2;100.0;100620;;;;
2023/02/25 04:32:00;;;;;;;2.3;2.3;;;;;;;3.2;100.0;100620;;;;
2023/02/25 04:33:00;;;;;;;2.3;2.3;;;;;;;3.2;100.0;100620;;;;
2023/02/25 04:34:00;;;;;;;2.3;2.3;;;;;;;3.2;100.0;100620;;;;
2023/02/25 04:35:01;;;;;;;2.3;2.3;;;;;;;3.2;100.0;100620;;;;
2023/02/25 04:36:00;;;;;;;2.3;2.3;;;;;;;3.2;100.0;100620;;;;
2023/02/25 04:37:03;;;;;;;2.3;2.3;;;;;;;3.3;100.0;100610;;;;
2023/02/25 04:38:00;;;;;;;2.3;2.3;;;;;;;3.3;100.0;100610;;;;
2023/02/25 04:39:02;;;;;;;2.3;2.3;;;;;;;3.3;100.0;100610;;;;
2023/02/25 04:40:00;;;;;;;2.3;2.3;;;;;;;3.3;100.0;100610;;;;
2023/02/25 04:41:00;;;;;;;2.3;2.3;;;;;;;3.2;100.0;100610;;;;
2023/02/25 04:42:00;;;;;;;2.3;2.3;;;;;;;3.2;100.0;100610;;;;
2023/02/25 04:43:00;;;;;;;2.3;2.3;;;;;;;3.3;100.0;100620;;;;
2023/02/25 04:44:02;;;;;;;2.3;2.3;;;;;;;3.3;100.0;100620;;;;
2023/02/25 04:45:00;;;;;;;2.3;2.3;;;;;;;3.3;100.0;100630;;;;
2023/02/25 04:46:00;;;;;;;2.3;2.3;;;;;;;3.3;100.0;100630;;;;
2023/02/25 04:47:00;;;;;;;2.3;2.3;;;;;;;3.3;100.0;100630;;;;
2023/02/25 04:48:00;;;;;;;2.3;2.3;;;;;;;3.3;100.0;100630;;;;
2023/02/25 04:49:00;;;;;;;2.3;2.3;;;;;;;3.4;100.0;100630;;;;
2023/02/25 04:50:00;;;;;;;2.3;2.3;;;;;;;3.4;100.0;100630;;;;
2023/02/25 04:51:01;;;;;;;2.3;2.3;;;;;;;3.4;100.0;100630;;;;
2023/02/25 04:52:00;;;;;;;2.3;2.3;;;;;;;3.4;100.0;100630;;;;
2023/02/25 04:53:01;;;;;;;2.3;2.3;;;;;;;3.4;100.0;100630;;;;
2023/02/25 04:54:00;;;;;;;2.3;2.3;;;;;;;3.4;100.0;100630;;;;
2023/02/25 04:55:00;;;;;;;2.3;2.3;;;;;;;3.4;100.0;100630;;;;
2023/02/25 04:56:01;;;;;;;2.3;2.3;;;;;;;3.4;100.0;100630;;;;
2023/02/25 04:57:00;;;;;;;2.3;2.3;;;;;;;3.5;100.0;100630;;;;
2023/02/25 04:58:00;;;;;;;2.3;2.3;;;;;;;3.5;100.0;100630;;;;
2023/02/25 04:59:00;;;;;;;2.3;2.3;;;;;;;3.4;100.0;100630;;;;
2023/02/25 05:00:00;;;;;;;2.3;2.3;;;;;;;3.4;100.0;100630;;;;
2023/02/25 05:01:01;;;;;;;2.3;2.3;;;;;;;3.5;100.0;100620;;;;
2023/02/25 05:02:00;;;;;;;2.3;2.3;;;;;;;3.5;100.0;100620;;;;
2023/02/25 05:03:00;;;;;;;2.3;2.3;;;;;;;3.5;100.0;100630;;;;
2023/02/25 05:04:00;;;;;;;2.3;2.3;;;;;;;3.5;100.0;100630;;;;
2023/02/25 05:05:00;;;;;;;2.3;2.3;;;;;;;3.5;100.0;100630;;;;
2023/02/25 05:06:00;;;;;;;2.3;2.3;;;;;;;3.5;100.0;100630;;;;
2023/02/25 05:07:00;;;;;;;2.3;2.3;;;;;;;3.5;100.0;100630;;;;
2023/02/25 05:08:00;;;;;;;2.3;2.3;;;;;;;3.5;100.0;100630;;;;
2023/02/25 05:09:01;;;;;;;2.3;2.3;;;;;;;3.4;100.0;100630;;;;
2023/02/25 05:10:00;;;;;;;2.3;2.3;;;;;;;3.4;100.0;100630;;;;
2023/02/25 05:11:00;;;;;;;2.3;2.3;;;;;;;3.3;100.0;100640;;;;
2023/02/25 05:12:00;;;;;;;2.3;2.3;;;;;;;3.3;100.0;100640;;;;
2023/02/25 05:13:00;;;;;;;2.3;2.3;;;;;;;3.3;100.0;100640;;;;
2023/02/25 05:14:00;;;;;;;2.3;2.3;;;;;;;3.3;100.0;100640;;;;
2023/02/25 05:15:04;;;;;;;2.3;2.3;;;;;;;3.3;100.0;100630;;;;
2023/02/25 05:16:02;;;;;;;2.3;2.3;;;;;;;3.3;100.0;100630;;;;
2023/02/25 05:17:00;;;;;;;2.0;2.0;;;;;;;3.3;100.0;100630;;;;
2023/02/25 05:18:00;;;;;;;2.0;2.0;;;;;;;3.3;100.0;100630;;;;
2023/02/25 05:19:00;;;;;;;2.0;2.0;;;;;;;3.2;100.0;100630;;;;
2023/02/25 05:20:01;;;;;;;2.0;2.0;;;;;;;3.2;100.0;100630;;;;
2023/02/25 05:21:00;;;;;;;2.0;2.0;;;;;;;3.2;100.0;100630;;;;
2023/02/25 05:22:00;;;;;;;2.0;2.0;;;;;;;3.2;100.0;100630;;;;
2023/02/25 05:23:00;;;;;;;2.0;2.0;;;;;;;3.1;100.0;100630;;;;
2023/02/25 05:24:00;;;;;;;2.0;2.0;;;;;;;3.1;100.0;100630;;;;
2023/02/25 05:25:00;;;;;;;2.0;2.0;;;;;;;3.1;100.0;100630;;;;
2023/02/25 05:26:01;;;;;;;2.0;2.0;;;;;;;3.1;100.0;100630;;;;
2023/02/25 05:27:07;;;;;;;2.0;2.0;;;;;;;3.0;100.0;100630;;;;
2023/02/25 05:28:00;;;;;;;2.0;2.0;;;;;;;3.0;100.0;100630;;;;
2023/02/25 05:29:00;;;;;;;2.0;2.0;;;;;;;3.0;100.0;100620;;;;
2023/02/25 05:30:00;;;;;;;2.0;2.0;;;;;;;3.0;100.0;100620;;;;
2023/02/25 05:31:09;;;;;;;2.0;2.0;;;;;;;2.9;100.0;100620;;;;
2023/02/25 05:32:01;;;;;;;2.0;2.0;;;;;;;2.9;100.0;100620;;;;
2023/02/25 05:33:00;;;;;;;2.0;2.0;;;;;;;2.9;100.0;100630;;;;
2023/02/25 05:34:00;;;;;;;2.0;2.0;;;;;;;2.9;100.0;100630;;;;
2023/02/25 05:35:00;;;;;;;2.0;2.0;;;;;;;2.9;100.0;100630;;;;
2023/02/25 05:36:00;;;;;;;2.0;2.0;;;;;;;2.9;100.0;100630;;;;
2023/02/25 05:37:00;;;;;;;2.7;2.6;;;;;;;2.9;100.0;100630;;;;
2023/02/25 05:38:00;;;;;;;2.7;2.6;;;;;;;2.9;100.0;100630;;;;
2023/02/25 05:39:01;;;;;;;2.7;2.6;;;;;;;2.8;100.0;100630;;;;
2023/02/25 05:40:00;;;;;;;2.7;2.6;;;;;;;2.8;100.0;100630;;;;
2023/02/25 05:41:00;;;;;;;2.7;2.6;;;;;;;2.8;100.0;100640;;;;
2023/02/25 05:42:00;;;;;;;2.7;2.6;;;;;;;2.8;100.0;100640;;;;
2023/02/25 05:43:00;;;;;;;2.7;2.6;;;;;;;2.8;100.0;100630;;;;
2023/02/25 05:44:00;;;;;;;2.7;2.6;;;;;;;2.8;100.0;100630;;;;
2023/02/25 05:45:00;;;;;;;2.7;2.6;;;;;;;2.8;100.0;100640;;;;
2023/02/25 05:46:02;;;;;;;2.7;2.6;;;;;;;2.8;100.0;100640;;;;
2023/02/25 05:47:00;;;;;;;2.7;2.6;;;;;;;2.8;100.0;100630;;;;
2023/02/25 05:48:00;;;;;;;2.7;2.6;;;;;;;2.8;100.0;100630;;;;
2023/02/25 05:49:00;;;;;;;2.7;2.6;;;;;;;2.8;100.0;100640;;;;
2023/02/25 05:50:00;;;;;;;2.7;2.6;;;;;;;2.8;100.0;100640;;;;
2023/02/25 05:51:04;;;;;;;2.7;2.6;;;;;;;2.7;100.0;100640;;;;
2023/02/25 05:52:00;;;;;;;2.7;2.6;;;;;;;2.7;100.0;100640;;;;
2023/02/25 05:53:00;;;;;;;2.7;2.6;;;;;;;2.7;100.0;100650;;;;
2023/02/25 05:54:00;;;;;;;2.7;2.6;;;;;;;2.7;100.0;100650;;;;
2023/02/25 05:55:01;;;;;;;2.7;2.6;;;;;;;2.7;100.0;100640;;;;
2023/02/25 05:56:04;;;;;;;2.7;2.6;;;;;;;2.7;100.0;100640;;;;
2023/02/25 05:57:00;;;;;;;2.3;2.3;;;;;;;2.7;100.0;100650;;;;
2023/02/25 05:58:00;;;;;;;2.3;2.3;;;;;;;2.7;100.0;100650;;;;
2023/02/25 05:59:00;;;;;;;2.3;2.3;;;;;;;2.6;100.0;100650;;;;
2023/02/25 06:00:00;;;;;;;2.3;2.3;;;;;;;2.6;100.0;100650;;;;
2023/02/25 06:01:09;;;;;;;2.3;2.3;;;;;;;2.6;100.0;100650;;;;
2023/02/25 06:02:00;;;;;;;2.3;2.3;;;;;;;2.6;100.0;100650;;;;
2023/02/25 06:03:00;;;;;;;2.3;2.3;;;;;;;2.7;100.0;100650;;;;
2023/02/25 06:04:00;;;;;;;2.3;2.3;;;;;;;2.7;100.0;100650;;;;
2023/02/25 06:05:01;;;;;;;2.3;2.3;;;;;;;2.7;100.0;100650;;;;
2023/02/25 06:06:00;;;;;;;2.3;2.3;;;;;;;2.7;100.0;100650;;;;
2023/02/25 06:07:02;;;;;;;2.3;2.3;;;;;;;2.7;100.0;100660;;;;
2023/02/25 06:08:00;;;;;;;2.3;2.3;;;;;;;2.7;100.0;100660;;;;
2023/02/25 06:09:00;;;;;;;2.3;2.3;;;;;;;2.8;100.0;100650;;;;
2023/02/25 06:10:01;;;;;;;2.3;2.3;;;;;;;2.8;100.0;100650;;;;
2023/02/25 06:11:01;;;;;;;2.3;2.3;;;;;;;2.8;100.0;100660;;;;
2023/02/25 06:12:00;;;;;;;2.3;2.3;;;;;;;2.8;100.0;100660;;;;
2023/02/25 06:13:00;;;;;;;2.3;2.3;;;;;;;2.9;100.0;100650;;;;
2023/02/25 06:14:00;;;;;;;2.3;2.3;;;;;;;2.9;100.0;100650;;;;
2023/02/25 06:15:00;;;;;;;2.3;2.3;;;;;;;2.8;100.0;100650;;;;
2023/02/25 06:16:03;;;;;;;2.3;2.3;;;;;;;2.8;100.0;100650;;;;
2023/02/25 06:17:01;;;;;;;2.3;2.3;;;;;;;2.9;100.0;100650;;;;
2023/02/25 06:18:00;;;;;;;2.3;2.3;;;;;;;2.9;100.0;100650;;;;
2023/02/25 06:19:01;;;;;;;2.3;2.3;;;;;;;2.8;100.0;100650;;;;
2023/02/25 06:20:00;;;;;;;2.3;2.3;;;;;;;2.8;100.0;100650;;;;
2023/02/25 06:21:04;;;;;;;2.3;2.3;;;;;;;3.0;100.0;100650;;;;
2023/02/25 06:22:00;;;;;;;2.3;2.3;;;;;;;3.0;100.0;100650;;;;
2023/02/25 06:23:01;;;;;;;2.3;2.3;;;;;;;3.0;100.0;100660;;;;
2023/02/25 06:24:01;;;;;;;2.3;2.3;;;;;;;3.0;100.0;100660;;;;
2023/02/25 06:25:00;;;;;;;2.3;2.3;;;;;;;3.0;100.0;100660;;;;
2023/02/25 06:26:01;;;;;;;2.3;2.3;;;;;;;3.0;100.0;100660;;;;
2023/02/25 06:27:00;;;;;;;2.3;2.3;;;;;;;3.0;100.0;100660;;;;
2023/02/25 06:28:01;;;;;;;2.3;2.3;;;;;;;3.0;100.0;100660;;;;
2023/02/25 06:29:00;;;;;;;2.3;2.3;;;;;;;3.0;100.0;100670;;;;
2023/02/25 06:30:02;;;;;;;2.3;2.3;;;;;;;3.0;100.0;100670;;;;